Time;durP1;ratioP1;P1;durP2;ratioP2;P2;SDS_P1;SDS_P2;PMS_P1;PMS_P2;Temp;Humidity;BMP_temperature;BMP_pressure;BME280_temperature;BME280_humidity;BME280_pressure;Samples;Min_cycle;Max_cycle;Signal;HPM_P1;HPM_P2
2020/12/25 00:00:18;;;;;;;11.83;6.12;;;;;;;7.32;92.78;96987.12;1740798;82;21251;-66
2020/12/25 00:02:48;;;;;;;9.55;6.53;;;;;;;7.32;92.79;96983.73;1720083;82;21606;-67
2020/12/25 00:05:16;;;;;;;15.35;8.75;;;;;;;7.30;93.07;96990.83;1720806;83;21130;-67
2020/12/25 00:07:44;;;;;;;8.30;6.15;;;;;;;7.27;93.22;96991.13;1722677;82;21283;-66
2020/12/25 00:10:12;;;;;;;8.83;5.45;;;;;;;7.31;92.93;96991.98;1720668;83;21170;-67
2020/12/25 00:12:44;;;;;;;10.43;6.03;;;;;;;7.34;92.89;96994.27;1724850;82;21169;-66
2020/12/25 00:15:12;;;;;;;12.00;5.42;;;;;;;7.38;92.83;96996.89;1723170;83;21167;-66
2020/12/25 00:17:40;;;;;;;8.00;4.40;;;;;;;7.43;92.73;96993.37;1762121;80;21548;-66
2020/12/25 00:20:08;;;;;;;10.48;6.90;;;;;;;7.46;92.46;96998.27;1723220;82;21173;-66
2020/12/25 00:22:36;;;;;;;11.43;6.42;;;;;;;7.48;92.47;96996.81;1762388;81;21178;-68
2020/12/25 00:25:04;;;;;;;10.20;5.55;;;;;;;7.50;92.32;97001.37;1725457;82;21235;-67
2020/12/25 00:27:32;;;;;;;10.53;6.45;;;;;;;7.53;92.23;97000.59;1764751;80;21290;-66
2020/12/25 00:30:00;;;;;;;10.75;6.75;;;;;;;7.57;92.20;97006.27;1725749;82;21315;-66
2020/12/25 00:32:30;;;;;;;13.72;7.72;;;;;;;7.57;91.94;97003.22;1763535;81;21313;-66
2020/12/25 00:34:58;;;;;;;9.80;6.78;;;;;;;7.50;92.20;97013.81;1723453;82;21181;-66
2020/12/25 00:37:26;;;;;;;12.23;7.03;;;;;;;7.51;92.17;97020.58;1723451;83;21586;-66
2020/12/25 00:39:54;;;;;;;9.03;5.60;;;;;;;7.53;92.13;97016.09;1762142;81;21568;-68
2020/12/25 00:42:22;;;;;;;8.35;5.60;;;;;;;7.62;92.40;97016.98;1723760;82;21138;-66
2020/12/25 00:44:50;;;;;;;10.65;5.72;;;;;;;7.69;92.03;97021.08;1725965;83;21348;-66
2020/12/25 00:47:18;;;;;;;9.50;6.17;;;;;;;7.74;91.85;97015.81;1764792;80;21286;-66
2020/12/25 00:49:46;;;;;;;8.88;5.78;;;;;;;7.81;91.83;97012.15;1725549;82;21302;-67
2020/12/25 00:52:14;;;;;;;8.78;6.17;;;;;;;7.86;91.67;97012.02;1764387;80;21317;-67
2020/12/25 00:54:43;;;;;;;11.30;7.45;;;;;;;7.88;91.36;97012.70;1725697;82;21303;-67
2020/12/25 00:57:16;;;;;;;13.95;9.03;;;;;;;7.87;91.07;97018.81;1763288;80;21293;-66
2020/12/25 01:00:00;;;;;;;11.53;8.28;;;;;;;7.86;90.98;97017.69;1721653;82;21194;-66
2020/12/25 01:02:29;;;;;;;16.07;8.08;;;;;;;7.78;90.66;97015.03;1763258;80;21158;-66
2020/12/25 01:04:57;;;;;;;15.15;7.78;;;;;;;7.70;90.67;97012.38;1762625;80;21210;-66
2020/12/25 01:07:25;;;;;;;14.43;7.97;;;;;;;7.61;91.04;97009.71;1723472;82;21177;-66
2020/12/25 01:09:53;;;;;;;16.57;9.25;;;;;;;7.55;91.91;97010.76;1723566;83;21562;-67
2020/12/25 01:12:22;;;;;;;14.95;6.50;;;;;;;7.52;91.88;97011.88;1762490;81;21166;-66
2020/12/25 01:14:50;;;;;;;12.30;8.05;;;;;;;7.54;91.76;97016.91;1723579;82;21497;-66
2020/12/25 01:17:20;;;;;;;14.05;7.53;;;;;;;7.54;91.62;97013.03;1762086;81;21123;-66
2020/12/25 01:19:48;;;;;;;11.22;6.50;;;;;;;7.49;91.82;97001.84;1723292;82;21272;-66
2020/12/25 01:22:16;;;;;;;20.50;8.98;;;;;;;7.46;91.90;97006.49;1762640;81;21150;-66
2020/12/25 01:24:44;;;;;;;15.90;8.85;;;;;;;7.45;92.02;97015.19;1724011;82;21192;-67
2020/12/25 01:27:12;;;;;;;13.60;7.90;;;;;;;7.43;91.91;97012.74;1762079;81;21163;-66
2020/12/25 01:29:40;;;;;;;13.90;7.53;;;;;;;7.40;91.71;97010.94;1723279;82;21165;-66
2020/12/25 01:32:08;;;;;;;13.30;6.37;;;;;;;7.36;92.09;97010.89;1762044;80;21155;-66
2020/12/25 01:34:36;;;;;;;11.43;6.67;;;;;;;7.33;92.11;97008.13;1723452;82;21173;-66
2020/12/25 01:37:04;;;;;;;17.32;7.67;;;;;;;7.30;92.31;97012.30;1761882;81;21150;-66
2020/12/25 01:39:32;;;;;;;11.10;7.47;;;;;;;7.29;92.58;97002.11;1723346;82;21185;-66
2020/12/25 01:42:00;;;;;;;12.93;7.80;;;;;;;7.26;93.22;96997.23;1723499;83;21142;-66
2020/12/25 01:44:28;;;;;;;10.35;7.55;;;;;;;7.23;93.85;97003.52;1762053;80;21159;-66
2020/12/25 01:46:56;;;;;;;11.65;7.28;;;;;;;7.20;94.07;96996.03;1723439;82;21165;-66
2020/12/25 01:49:24;;;;;;;10.20;6.67;;;;;;;7.18;94.35;96992.80;1761869;80;21162;-66
2020/12/25 01:51:52;;;;;;;13.75;6.35;;;;;;;7.16;94.31;96992.12;1723119;82;21169;-66
2020/12/25 01:54:20;;;;;;;9.78;6.75;;;;;;;7.18;94.25;96998.44;1761866;81;21155;-66
2020/12/25 01:56:48;;;;;;;11.93;7.03;;;;;;;7.20;93.98;96997.83;1723322;82;21177;-66
2020/12/25 01:59:17;;;;;;;12.60;6.35;;;;;;;7.19;93.98;96996.20;1723174;83;21158;-66
2020/12/25 02:01:45;;;;;;;10.78;6.08;;;;;;;7.21;93.59;96994.27;1761952;80;21156;-66
2020/12/25 02:04:13;;;;;;;7.97;4.70;;;;;;;7.22;93.35;96993.32;1723367;82;21174;-66
2020/12/25 02:06:41;;;;;;;9.80;5.42;;;;;;;7.25;93.32;96989.97;1762043;81;21150;-66
2020/12/25 02:09:08;;;;;;;5.10;4.12;;;;;;;7.23;93.88;96995.77;1762028;80;21158;-66
2020/12/25 02:11:37;;;;;;;8.58;5.70;;;;;;;7.26;93.47;96990.78;1695772;82;21193;-67
2020/12/25 02:14:05;;;;;;;9.53;6.25;;;;;;;7.30;93.33;96992.12;1688341;85;21166;-66
2020/12/25 02:16:33;;;;;;;10.05;5.87;;;;;;;7.34;93.16;97003.78;1687591;84;21178;-66
2020/12/25 02:19:01;;;;;;;9.28;6.70;;;;;;;7.33;92.92;96999.56;1711425;84;21578;-66
2020/12/25 02:21:29;;;;;;;9.18;5.12;;;;;;;7.33;92.87;96999.09;1711108;83;22669;-66
2020/12/25 02:23:57;;;;;;;9.58;6.08;;;;;;;7.36;92.92;96991.05;1711343;83;21173;-67
2020/12/25 02:26:25;;;;;;;12.85;5.80;;;;;;;7.38;93.01;96993.02;1711034;83;21622;-66
2020/12/25 02:28:53;;;;;;;10.53;6.05;;;;;;;7.42;93.04;96990.95;1711397;83;21157;-67
2020/12/25 02:31:21;;;;;;;9.15;5.85;;;;;;;7.44;93.00;96991.13;1711221;83;21157;-66
2020/12/25 02:33:49;;;;;;;11.75;5.42;;;;;;;7.44;92.97;96992.42;1711134;84;21201;-66
2020/12/25 02:36:17;;;;;;;9.68;6.20;;;;;;;7.47;92.99;96993.41;1711361;83;21159;-66
2020/12/25 02:38:45;;;;;;;9.83;5.25;;;;;;;7.52;93.01;96995.56;1711182;84;21396;-66
2020/12/25 02:41:14;;;;;;;7.05;4.28;;;;;;;7.57;92.92;96988.19;1711257;83;21173;-66
2020/12/25 02:43:42;;;;;;;7.45;4.78;;;;;;;7.66;93.11;96988.60;1711245;83;21130;-66
2020/12/25 02:46:11;;;;;;;9.85;5.33;;;;;;;7.70;92.66;96986.06;1711278;83;21162;-66
2020/12/25 02:48:39;;;;;;;8.28;4.85;;;;;;;7.71;92.45;96985.08;1711175;84;21595;-65
2020/12/25 02:51:07;;;;;;;7.35;4.95;;;;;;;7.73;92.39;96989.63;1711114;83;21169;-67
2020/12/25 02:53:35;;;;;;;7.22;4.87;;;;;;;7.75;92.33;96991.57;1711126;84;21197;-66
2020/12/25 02:56:03;;;;;;;9.55;5.17;;;;;;;7.83;92.42;96996.81;1711320;83;21146;-66
2020/12/25 02:58:30;;;;;;;4.22;3.65;;;;;;;7.89;92.26;96992.36;1711258;83;21173;-65
2020/12/25 03:00:58;;;;;;;6.87;4.05;;;;;;;7.95;92.05;96999.50;1711454;84;21169;-66
2020/12/25 03:03:26;;;;;;;6.12;3.98;;;;;;;7.98;91.68;96999.67;1711230;83;21557;-66
2020/12/25 03:05:54;;;;;;;5.78;3.55;;;;;;;8.02;91.56;97000.52;1711359;83;21158;-67
2020/12/25 03:08:21;;;;;;;5.97;3.00;;;;;;;8.05;91.28;96994.25;1711490;84;21571;-66
2020/12/25 03:10:49;;;;;;;3.75;2.42;;;;;;;8.06;91.01;96986.33;1711359;83;21575;-66
2020/12/25 03:13:17;;;;;;;6.70;2.20;;;;;;;8.06;90.47;96994.09;1717073;82;21196;-66
2020/12/25 03:15:47;;;;;;;3.00;2.10;;;;;;;8.02;90.26;96986.77;1720322;83;21146;-67
2020/12/25 03:18:15;;;;;;;3.22;2.25;;;;;;;8.03;90.49;96986.64;1720578;82;21172;-66
2020/12/25 03:20:43;;;;;;;3.80;2.08;;;;;;;8.04;90.43;96988.27;1720323;82;21177;-66
2020/12/25 03:23:12;;;;;;;4.40;2.70;;;;;;;7.99;89.68;96990.48;1720335;82;21145;-66
2020/12/25 03:25:40;;;;;;;7.35;3.40;;;;;;;8.02;90.17;96985.00;1720216;83;21123;-67
2020/12/25 03:28:09;;;;;;;5.60;3.22;;;;;;;7.98;89.99;96982.39;1720241;82;21165;-66
2020/12/25 03:30:37;;;;;;;6.78;3.67;;;;;;;7.99;90.22;96983.20;1720201;82;21228;-67
2020/12/25 03:33:05;;;;;;;5.20;3.20;;;;;;;7.97;90.06;96982.08;1720284;82;21169;-66
2020/12/25 03:35:34;;;;;;;8.43;3.67;;;;;;;7.94;90.03;96991.41;1718145;82;21166;-66
2020/12/25 03:38:03;;;;;;;5.58;3.50;;;;;;;7.92;90.00;96992.05;1720225;82;21185;-66
2020/12/25 03:40:34;;;;;;;5.50;3.20;;;;;;;7.89;90.05;96994.94;1720340;82;21158;-66
2020/12/25 03:43:01;;;;;;;6.37;3.83;;;;;;;7.85;90.00;96993.61;1720624;82;21165;-66
2020/12/25 03:45:29;;;;;;;6.85;3.40;;;;;;;7.74;89.89;96996.44;1720241;82;21241;-66
2020/12/25 03:48:00;;;;;;;7.58;3.95;;;;;;;7.64;90.00;97000.37;1720307;82;21146;-66
2020/12/25 03:50:39;;;;;;;6.05;3.77;;;;;;;7.58;90.20;96999.68;1750161;81;21555;-66
2020/12/25 03:53:07;;;;;;;6.87;3.80;;;;;;;7.45;90.75;96999.22;1750181;82;21674;-67
2020/12/25 03:55:35;;;;;;;4.35;3.47;;;;;;;7.36;91.05;97006.54;1749974;81;21134;-66
2020/12/25 03:58:03;;;;;;;7.30;3.60;;;;;;;7.30;91.41;97005.03;1750055;82;21274;-66
2020/12/25 04:00:31;;;;;;;6.15;3.70;;;;;;;7.14;92.45;96997.45;1750082;82;21388;-66
2020/12/25 04:02:58;;;;;;;9.70;2.67;;;;;;;7.08;92.85;97001.09;1749972;82;21261;-66
2020/12/25 04:05:26;;;;;;;4.40;2.92;;;;;;;7.06;92.20;97001.70;1750255;81;21147;-67
2020/12/25 04:07:54;;;;;;;5.30;3.40;;;;;;;6.99;92.82;96997.59;1750031;82;21270;-66
2020/12/25 04:10:22;;;;;;;3.65;2.90;;;;;;;6.84;94.50;96996.93;1750215;81;21273;-67
2020/12/25 04:12:50;;;;;;;5.42;2.85;;;;;;;6.85;94.10;97002.43;1750157;81;21265;-66
2020/12/25 04:15:18;;;;;;;3.50;2.80;;;;;;;6.83;93.77;97001.75;1750027;82;21285;-67
2020/12/25 04:17:46;;;;;;;3.85;2.85;;;;;;;6.80;94.01;97008.48;1750017;82;21320;-66
2020/12/25 04:20:14;;;;;;;3.17;2.37;;;;;;;6.78;94.28;97000.06;1750254;81;21182;-66
2020/12/25 04:22:42;;;;;;;5.50;3.33;;;;;;;6.75;94.63;97005.52;1750100;81;21286;-67
2020/12/25 04:25:10;;;;;;;4.85;3.47;;;;;;;6.72;94.68;97004.04;1750058;81;21273;-67
2020/12/25 04:27:38;;;;;;;5.58;2.98;;;;;;;6.73;94.24;97003.56;1750024;81;21269;-67
2020/12/25 04:30:06;;;;;;;4.95;2.87;;;;;;;6.73;93.99;97003.56;1750048;81;21360;-66
2020/12/25 04:32:34;;;;;;;2.67;2.20;;;;;;;6.71;94.52;96999.83;1750123;82;21258;-66
2020/12/25 04:35:02;;;;;;;3.58;2.02;;;;;;;6.69;94.66;96999.95;1749992;82;21269;-66
2020/12/25 04:37:30;;;;;;;4.50;1.87;;;;;;;6.71;94.15;96997.25;1749981;81;21273;-66
2020/12/25 04:39:58;;;;;;;4.67;1.65;;;;;;;6.73;94.37;96995.32;1750056;82;21285;-67
2020/12/25 04:42:27;;;;;;;2.77;1.30;;;;;;;6.77;94.22;96997.16;1750130;82;21337;-66
2020/12/25 04:44:57;;;;;;;1.62;1.10;;;;;;;6.76;94.12;96998.94;1750096;82;21104;-66
2020/12/25 04:47:24;;;;;;;1.27;1.17;;;;;;;6.75;93.96;96998.59;1749938;81;21176;-66
2020/12/25 04:49:52;;;;;;;1.22;0.90;;;;;;;6.75;93.77;96998.59;1751722;82;21182;-65
2020/12/25 04:52:20;;;;;;;0.95;0.75;;;;;;;6.78;93.57;96996.19;1793270;80;21282;-66
2020/12/25 04:54:48;;;;;;;3.25;0.70;;;;;;;6.82;93.54;97001.41;1793123;79;21151;-67
2020/12/25 04:57:16;;;;;;;1.27;0.93;;;;;;;6.85;93.50;97005.02;1793071;79;21147;-67
2020/12/25 04:59:44;;;;;;;0.90;0.65;;;;;;;6.87;93.20;97008.25;1793434;80;21576;-66
2020/12/25 05:04:52;;;;;;;0.88;0.53;;;;;;;6.95;93.05;96998.02;1808726;79;21267;-66
2020/12/25 05:07:20;;;;;;;1.50;1.32;;;;;;;6.97;92.93;96994.81;1809599;79;21116;-65
2020/12/25 05:09:52;;;;;;;0.78;0.60;;;;;;;7.01;92.89;96993.09;1809607;79;21220;-65
2020/12/25 05:12:20;;;;;;;1.10;0.82;;;;;;;7.05;92.76;96990.55;1809545;79;21112;-66
2020/12/25 05:14:48;;;;;;;0.78;0.78;;;;;;;7.11;92.86;96986.12;1809514;78;21145;-66
2020/12/25 05:17:20;;;;;;;1.07;0.65;;;;;;;7.13;92.46;96985.48;1809424;79;21167;-65
2020/12/25 05:19:49;;;;;;;1.95;1.05;;;;;;;7.14;92.15;96987.59;1809721;78;21513;-66
2020/12/25 05:22:19;;;;;;;0.80;0.60;;;;;;;7.17;91.94;96992.46;1809630;79;21109;-66
2020/12/25 05:24:46;;;;;;;1.52;1.02;;;;;;;7.22;92.00;96990.73;1810097;78;21672;-68
2020/12/25 05:27:14;;;;;;;2.22;0.72;;;;;;;7.27;92.13;96989.36;1809956;79;21160;-65
2020/12/25 05:29:43;;;;;;;1.87;1.17;;;;;;;7.33;92.08;96986.66;1809751;79;21143;-66
2020/12/25 05:32:13;;;;;;;1.25;0.90;;;;;;;7.39;91.90;96984.29;1809470;79;21278;-65
2020/12/25 05:34:43;;;;;;;1.17;0.80;;;;;;;7.45;91.80;96988.07;1809627;78;21286;-65
2020/12/25 05:37:14;;;;;;;1.98;1.25;;;;;;;7.50;91.60;96991.84;1783335;79;21144;-65
2020/12/25 05:39:41;;;;;;;2.98;1.60;;;;;;;7.54;91.31;96988.48;1809531;78;21285;-65
2020/12/25 05:42:10;;;;;;;3.12;1.50;;;;;;;7.57;91.14;96994.17;1809675;79;21553;-66
2020/12/25 05:44:46;;;;;;;2.92;2.02;;;;;;;7.62;91.06;96993.73;1809595;79;21199;-66
2020/12/25 05:47:16;;;;;;;2.75;1.62;;;;;;;7.64;90.76;96992.61;1809784;78;21144;-66
2020/12/25 05:49:45;;;;;;;2.42;1.77;;;;;;;7.67;90.54;96997.14;1809506;79;21147;-66
2020/12/25 05:52:13;;;;;;;2.12;1.52;;;;;;;7.69;90.45;96993.47;1809536;78;21298;-66
2020/12/25 05:54:46;;;;;;;2.92;1.52;;;;;;;7.73;90.39;96990.92;1809779;79;21139;-66
2020/12/25 05:57:15;;;;;;;4.00;2.25;;;;;;;7.78;90.28;96993.06;1809598;78;21155;-66
2020/12/25 05:59:46;;;;;;;3.12;2.05;;;;;;;7.79;89.92;96995.48;1809438;79;21328;-66
2020/12/25 06:02:16;;;;;;;3.45;1.65;;;;;;;7.77;89.50;97000.00;1809609;79;21141;-66
2020/12/25 06:04:46;;;;;;;2.27;1.72;;;;;;;7.73;89.40;96998.67;1809230;79;21318;-66
2020/12/25 06:07:19;;;;;;;3.65;2.37;;;;;;;7.67;88.96;96998.44;1806634;79;21561;-66
2020/12/25 06:09:50;;;;;;;3.87;1.80;;;;;;;7.55;88.89;97002.53;1809383;79;21286;-67
2020/12/25 06:12:20;;;;;;;3.35;1.95;;;;;;;7.45;89.17;97002.28;1809268;78;21131;-65
2020/12/25 06:14:53;;;;;;;3.77;2.17;;;;;;;7.38;89.36;97001.24;1809493;78;21159;-66
2020/12/25 06:17:22;;;;;;;3.75;2.02;;;;;;;7.33;89.58;97008.61;1809588;79;21144;-65
2020/12/25 06:20:26;;;;;;;4.58;2.25;;;;;;;7.26;89.62;97022.59;1809341;78;21151;-66
2020/12/25 06:22:55;;;;;;;3.33;2.17;;;;;;;7.24;89.83;97023.70;1639399;87;21200;-66
2020/12/25 06:25:26;;;;;;;4.90;2.90;;;;;;;7.21;89.92;97029.94;1639272;87;21187;-66
2020/12/25 06:28:04;;;;;;;5.00;3.02;;;;;;;7.15;89.91;97030.53;1624414;87;21227;-66
2020/12/25 06:30:35;;;;;;;3.98;2.27;;;;;;;7.06;90.07;97029.63;1659232;86;21206;-66
2020/12/25 06:33:03;;;;;;;2.75;1.90;;;;;;;7.03;90.10;97032.97;1659238;86;21185;-66
2020/12/25 06:35:38;;;;;;;4.45;2.90;;;;;;;7.00;90.33;97027.59;1659320;86;21201;-66
2020/12/25 06:38:15;;;;;;;3.75;2.33;;;;;;;6.91;90.81;97030.23;1659425;86;21182;-65
2020/12/25 06:40:44;;;;;;;2.75;1.98;;;;;;;6.84;91.37;97032.58;1659103;86;21638;-66
2020/12/25 06:43:18;;;;;;;3.80;2.60;;;;;;;6.81;91.25;97041.88;1659188;86;21209;-66
2020/12/25 06:45:53;;;;;;;3.75;2.22;;;;;;;6.79;91.22;97045.56;1659559;86;21185;-66
2020/12/25 06:48:22;;;;;;;4.45;2.45;;;;;;;6.76;91.48;97051.83;1659127;86;21158;-67
2020/12/25 06:50:56;;;;;;;3.17;2.27;;;;;;;6.72;91.45;97054.35;1659538;86;21182;-66
2020/12/25 06:53:43;;;;;;;4.35;2.75;;;;;;;6.71;91.52;97051.90;1659228;86;21228;-66
2020/12/25 06:56:20;;;;;;;3.95;2.33;;;;;;;6.71;91.51;97048.84;1659234;86;21161;-66
2020/12/25 06:58:54;;;;;;;4.75;3.33;;;;;;;6.72;91.54;97054.35;1644687;86;29123;-66
2020/12/25 07:01:56;;;;;;;3.60;2.27;;;;;;;6.84;91.15;97054.52;1659204;86;21189;-66
2020/12/25 07:04:30;;;;;;;4.85;1.90;;;;;;;6.83;91.10;97056.75;1664649;86;21301;-66
2020/12/25 07:07:07;;;;;;;1.55;1.45;;;;;;;6.84;91.18;97060.97;1664648;86;21163;-66
2020/12/25 07:09:40;;;;;;;;;;;;;;;6.87;91.22;97058.09;1667104;86;21305;-65
2020/12/25 07:12:14;;;;;;;3.02;1.50;;;;;;;6.91;91.35;97060.73;1664595;86;20478;-66
2020/12/25 07:14:42;;;;;;;2.33;1.67;;;;;;;6.94;91.36;97063.02;1664663;86;21337;-66
2020/12/25 07:17:11;;;;;;;2.87;1.50;;;;;;;7.00;91.35;97067.60;1664816;86;21148;-66
2020/12/25 07:19:40;;;;;;;4.53;2.40;;;;;;;7.07;91.34;97067.40;1664729;86;21619;-66
2020/12/25 07:22:08;;;;;;;3.37;2.40;;;;;;;7.13;91.28;97065.52;1664643;86;21420;-66
2020/12/25 07:24:40;;;;;;;2.08;1.70;;;;;;;7.19;91.18;97065.91;1664572;86;21718;-66
2020/12/25 07:27:11;;;;;;;3.27;2.12;;;;;;;7.24;91.05;97069.67;1664888;86;21178;-66
2020/12/25 07:29:45;;;;;;;3.65;2.22;;;;;;;7.26;90.75;97069.55;1708566;81;21262;-66
2020/12/25 07:32:13;;;;;;;2.77;1.90;;;;;;;7.28;90.53;97070.20;1717771;83;21597;-66
2020/12/25 07:34:41;;;;;;;2.95;1.70;;;;;;;7.30;90.38;97071.70;1695510;84;21138;-65
2020/12/25 07:37:10;;;;;;;2.55;1.52;;;;;;;7.33;90.44;97073.98;1695682;84;21223;-66
2020/12/25 07:39:38;;;;;;;2.62;1.82;;;;;;;7.40;90.47;97089.71;1695656;84;21183;-66
2020/12/25 07:42:09;;;;;;;1.98;1.40;;;;;;;7.42;89.98;97089.92;1695530;84;21163;-66
2020/12/25 07:44:39;;;;;;;2.47;1.82;;;;;;;7.46;90.12;97093.03;1695662;84;21580;-66
2020/12/25 07:47:09;;;;;;;3.40;1.85;;;;;;;7.52;90.09;97095.02;1672554;85;21140;-67
2020/12/25 07:49:39;;;;;;;3.62;1.70;;;;;;;7.57;90.02;97097.99;1696539;84;21165;-66
2020/12/25 07:52:08;;;;;;;2.22;1.72;;;;;;;7.62;89.87;97097.09;1695775;84;21179;-66
2020/12/25 07:54:37;;;;;;;2.67;2.00;;;;;;;7.67;89.68;97105.20;1695603;84;21200;-66
2020/12/25 07:57:06;;;;;;;2.37;1.50;;;;;;;7.71;89.58;97108.30;1696294;84;21200;-67
2020/12/25 07:59:36;;;;;;;1.57;1.47;;;;;;;7.74;89.17;97109.33;1695876;84;21180;-66
2020/12/25 08:02:04;;;;;;;2.12;1.15;;;;;;;7.76;88.87;97099.64;1696472;84;21568;-66
2020/12/25 08:04:33;;;;;;;2.10;1.30;;;;;;;7.78;88.84;97104.98;1695602;84;21238;-67
2020/12/25 08:07:02;;;;;;;2.12;1.30;;;;;;;7.81;88.78;97111.18;1695697;84;21168;-66
2020/12/25 08:09:32;;;;;;;2.35;1.50;;;;;;;7.85;88.74;97105.23;1695794;84;21192;-66
2020/12/25 08:12:02;;;;;;;4.25;2.47;;;;;;;7.89;88.59;97103.98;1695702;84;21167;-66
2020/12/25 08:14:32;;;;;;;5.97;2.58;;;;;;;7.89;88.00;97104.80;1695628;84;21676;-66
2020/12/25 08:17:01;;;;;;;3.47;2.20;;;;;;;7.88;88.22;97107.05;1695627;84;21585;-66
2020/12/25 08:19:35;;;;;;;3.65;2.33;;;;;;;7.89;88.21;97109.97;1695745;84;21178;-66
2020/12/25 08:22:10;;;;;;;3.50;2.05;;;;;;;7.91;88.39;97114.98;1695502;84;21147;-66
2020/12/25 08:24:39;;;;;;;3.42;2.15;;;;;;;7.92;88.27;97116.13;1695750;84;21183;-65
2020/12/25 08:27:08;;;;;;;2.65;2.10;;;;;;;7.90;88.10;97115.45;1695673;84;21633;-66
2020/12/25 08:29:39;;;;;;;4.45;2.77;;;;;;;7.90;88.20;97121.91;1695092;83;21306;-67
2020/12/25 08:32:09;;;;;;;5.20;2.42;;;;;;;7.87;87.99;97121.40;1695278;85;21183;-65
2020/12/25 08:34:39;;;;;;;4.45;2.25;;;;;;;7.84;88.10;97130.74;1695085;85;21167;-66
2020/12/25 08:37:09;;;;;;;6.05;3.37;;;;;;;7.80;88.09;97134.58;1695042;83;21308;-65
2020/12/25 08:39:37;;;;;;;6.33;3.12;;;;;;;7.74;88.11;97134.70;1712352;84;21282;-66
2020/12/25 08:42:09;;;;;;;3.05;2.50;;;;;;;7.71;88.16;97141.89;1712333;83;21306;-64
2020/12/25 08:44:36;;;;;;;4.45;2.65;;;;;;;7.64;88.17;97141.19;1712454;83;21197;-64
2020/12/25 08:47:10;;;;;;;5.00;2.85;;;;;;;7.59;88.25;97134.82;1712177;83;21160;-64
2020/12/25 08:49:38;;;;;;;3.62;2.35;;;;;;;7.55;88.33;97136.88;1712295;83;21318;-65
2020/12/25 08:52:21;;;;;;;4.45;2.60;;;;;;;7.50;88.34;97136.52;1712458;83;21298;-64
2020/12/25 08:54:57;;;;;;;5.58;2.27;;;;;;;7.45;88.49;97144.34;1712438;83;21275;-64
2020/12/25 08:57:27;;;;;;;3.00;2.40;;;;;;;7.41;88.62;97131.38;1659540;86;21212;-66
2020/12/25 09:00:06;;;;;;;4.28;2.75;;;;;;;7.39;88.71;97125.06;1695190;83;21720;-67
2020/12/25 09:02:34;;;;;;;3.20;2.20;;;;;;;7.38;88.73;97128.62;1712375;84;21298;-66
2020/12/25 09:05:02;;;;;;;4.87;2.77;;;;;;;7.35;88.77;97123.75;1669539;85;21180;-66
2020/12/25 09:07:30;;;;;;;4.67;3.10;;;;;;;7.34;88.84;97124.70;1695377;85;21175;-65
2020/12/25 09:09:58;;;;;;;5.33;2.90;;;;;;;7.31;89.04;97121.11;1695065;85;21191;-65
2020/12/25 09:12:26;;;;;;;4.92;3.62;;;;;;;7.29;89.15;97115.73;1695320;85;21171;-65
2020/12/25 09:14:54;;;;;;;3.45;2.50;;;;;;;7.27;89.27;97111.20;1695337;85;21179;-65
2020/12/25 09:17:22;;;;;;;6.10;2.95;;;;;;;7.26;89.31;97109.56;1695268;85;21235;-65
2020/12/25 09:19:50;;;;;;;5.53;3.62;;;;;;;7.27;89.47;97120.24;1695151;85;21298;-67
2020/12/25 09:22:18;;;;;;;5.67;3.52;;;;;;;7.22;89.66;97112.10;1695167;85;21203;-66
2020/12/25 09:24:47;;;;;;;5.70;3.60;;;;;;;7.16;89.80;97111.70;1695272;85;21240;-64
2020/12/25 09:27:14;;;;;;;3.60;2.60;;;;;;;7.18;89.64;97114.16;1695274;84;21154;-67
2020/12/25 09:29:42;;;;;;;4.92;3.17;;;;;;;7.16;89.92;97115.58;1707473;84;21597;-64
2020/12/25 09:32:10;;;;;;;2.60;2.12;;;;;;;7.10;89.50;97110.17;1705587;83;21173;-65
2020/12/25 09:34:38;;;;;;;2.27;0.90;;;;;;;7.11;89.40;97112.63;1693646;85;21297;-65
2020/12/25 09:37:06;;;;;;;1.20;0.78;;;;;;;7.10;88.54;97100.67;1705816;84;21177;-65
2020/12/25 09:39:36;;;;;;;1.42;0.88;;;;;;;7.21;88.87;97104.01;1704223;84;21169;-65
2020/12/25 09:42:03;;;;;;;2.55;1.47;;;;;;;7.28;88.76;97102.48;1705562;83;21172;-65
2020/12/25 09:44:31;;;;;;;1.90;1.12;;;;;;;7.35;88.68;97093.23;1705790;83;21206;-66
2020/12/25 09:46:59;;;;;;;1.62;1.20;;;;;;;7.44;88.58;97094.45;1705833;83;21165;-65
2020/12/25 09:49:27;;;;;;;2.92;1.47;;;;;;;7.54;88.49;97094.41;1705823;83;21253;-65
2020/12/25 09:51:57;;;;;;;2.20;1.57;;;;;;;7.62;87.98;97096.61;1705814;84;21180;-65
2020/12/25 09:54:25;;;;;;;1.20;1.10;;;;;;;7.69;87.60;97092.95;1705787;83;21181;-64
2020/12/25 09:56:52;;;;;;;2.72;1.40;;;;;;;7.79;87.78;97094.98;1705638;83;21582;-66
2020/12/25 09:59:23;;;;;;;3.72;1.70;;;;;;;7.86;87.10;97087.48;1705716;83;21133;-66
2020/12/25 10:01:51;;;;;;;1.98;1.37;;;;;;;7.93;86.51;97083.34;1705804;83;21160;-67
2020/12/25 10:04:19;;;;;;;2.45;1.37;;;;;;;7.98;86.00;97087.09;1705583;83;21152;-66
2020/12/25 10:06:47;;;;;;;1.72;1.30;;;;;;;7.99;85.84;97077.57;1705720;83;21184;-64
2020/12/25 10:09:15;;;;;;;1.50;1.40;;;;;;;8.07;85.65;97084.11;1658324;86;21183;-65
2020/12/25 10:11:43;;;;;;;3.00;1.57;;;;;;;8.10;85.34;97084.63;1693770;84;21169;-64
2020/12/25 10:14:11;;;;;;;2.17;1.40;;;;;;;8.21;85.85;97093.92;1705815;84;21162;-66
2020/12/25 10:16:39;;;;;;;1.62;1.22;;;;;;;8.33;85.88;97090.65;1693750;85;21596;-66
2020/12/25 10:19:07;;;;;;;2.08;1.27;;;;;;;8.37;84.28;97091.97;1693686;85;21146;-64
2020/12/25 10:21:35;;;;;;;3.20;1.85;;;;;;;8.37;84.26;97090.68;1705624;84;21531;-65
2020/12/25 10:24:03;;;;;;;2.47;1.87;;;;;;;8.31;83.00;97088.70;1658203;86;21176;-65
2020/12/25 10:26:30;;;;;;;5.58;1.92;;;;;;;8.17;82.98;97086.12;1693551;85;21316;-65
2020/12/25 10:28:58;;;;;;;2.75;2.00;;;;;;;8.27;83.21;97093.81;1706911;84;21208;-67
2020/12/25 10:31:26;;;;;;;3.27;1.98;;;;;;;8.25;83.60;97095.75;1695747;84;21603;-66
2020/12/25 10:33:54;;;;;;;4.87;1.85;;;;;;;8.25;82.96;97095.24;1695634;84;21229;-65
2020/12/25 10:36:25;;;;;;;3.12;1.85;;;;;;;8.29;83.54;97097.90;1681723;84;21172;-65
2020/12/25 10:38:53;;;;;;;2.27;1.55;;;;;;;8.25;82.97;97093.95;1681718;85;21246;-65
2020/12/25 10:41:30;;;;;;;2.90;1.67;;;;;;;8.22;82.87;97085.20;1681610;85;21185;-65
2020/12/25 10:43:59;;;;;;;2.30;1.45;;;;;;;8.23;83.57;97094.59;1681910;84;21331;-67
2020/12/25 10:46:27;;;;;;;2.47;1.62;;;;;;;8.23;83.01;97099.77;1681660;85;21200;-66
2020/12/25 10:48:55;;;;;;;3.37;1.57;;;;;;;8.22;82.98;97099.43;1681955;85;21686;-65
2020/12/25 10:51:23;;;;;;;2.70;1.50;;;;;;;8.18;82.77;97098.58;1681922;85;21310;-64
2020/12/25 10:53:51;;;;;;;3.87;1.50;;;;;;;8.15;83.33;97091.94;1681679;84;21167;-67
2020/12/25 10:56:28;;;;;;;2.45;1.30;;;;;;;8.13;83.27;97090.00;1681682;85;21191;-67
2020/12/25 10:58:56;;;;;;;4.78;1.65;;;;;;;8.13;83.56;97084.01;1681752;84;21179;-67
2020/12/25 11:01:28;;;;;;;1.45;1.22;;;;;;;8.08;82.96;97088.33;1681930;85;21179;-66
2020/12/25 11:03:58;;;;;;;1.17;0.72;;;;;;;8.05;83.15;97087.34;1682132;85;21269;-66
2020/12/25 11:06:37;;;;;;;1.10;0.78;;;;;;;8.02;83.20;97084.55;1681640;85;21161;-66
2020/12/25 11:09:09;;;;;;;0.95;0.60;;;;;;;7.97;82.92;97081.61;1681700;85;21148;-66
2020/12/25 11:11:40;;;;;;;0.90;0.72;;;;;;;7.93;82.42;97078.98;1681523;85;21184;-67
2020/12/25 11:14:08;;;;;;;0.72;0.55;;;;;;;7.89;82.31;97075.08;1681752;85;21193;-65
2020/12/25 11:16:37;;;;;;;1.32;0.70;;;;;;;7.84;82.10;97086.33;1681873;85;21328;-68
2020/12/25 11:19:08;;;;;;;1.35;0.88;;;;;;;7.78;81.93;97086.89;1681885;85;21327;-67
2020/12/25 11:21:37;;;;;;;1.37;0.78;;;;;;;7.75;82.37;97092.36;1681801;85;21616;-66
2020/12/25 11:24:05;;;;;;;1.75;0.60;;;;;;;7.72;82.50;97097.02;1681860;84;21783;-66
2020/12/25 11:26:36;;;;;;;1.02;0.80;;;;;;;7.73;82.85;97095.59;1681680;85;21181;-63
2020/12/25 11:29:06;;;;;;;2.45;1.00;;;;;;;7.75;83.04;97098.00;1681991;84;21174;-67
2020/12/25 11:31:36;;;;;;;1.50;1.00;;;;;;;7.78;83.16;97087.40;1700460;83;21596;-65
2020/12/25 11:34:05;;;;;;;1.42;1.12;;;;;;;7.77;83.18;97091.75;1722619;83;21163;-67
2020/12/25 11:36:36;;;;;;;1.27;1.17;;;;;;;7.74;83.11;97099.80;1722472;83;21298;-65
2020/12/25 11:39:06;;;;;;;1.30;0.90;;;;;;;7.75;83.24;97088.48;1722462;83;21293;-65
2020/12/25 11:41:35;;;;;;;1.02;0.90;;;;;;;7.76;82.87;97083.66;1722428;83;21292;-65
2020/12/25 11:44:04;;;;;;;1.32;0.80;;;;;;;7.76;83.05;97088.83;1722637;83;21289;-66
2020/12/25 11:46:32;;;;;;;1.50;1.07;;;;;;;7.74;83.06;97093.34;1722699;83;21301;-66
2020/12/25 11:49:03;;;;;;;1.62;0.90;;;;;;;7.73;83.40;97086.54;1722604;83;21160;-66
2020/12/25 11:51:31;;;;;;;1.45;0.85;;;;;;;7.70;83.77;97082.97;1722710;83;21155;-67
2020/12/25 11:53:59;;;;;;;1.12;0.98;;;;;;;7.66;83.20;97085.50;1722698;83;21222;-65